createdAt,value
2018-04-01T00:00:07.718Z,6.88
2018-04-01T00:10:05.927Z,6.88
2018-04-01T00:20:00.072Z,6.60
2018-04-01T00:29:58.509Z,6.60
2018-04-01T00:39:56.907Z,6.57
2018-04-01T00:49:53.604Z,6.45
2018-04-01T00:59:49.771Z,6.51
2018-04-01T01:09:48.430Z,6.32
2018-04-01T01:19:45.740Z,6.18
2018-04-01T01:29:44.154Z,6.27
2018-04-01T01:39:41.025Z,6.18
2018-04-01T01:49:37.218Z,6.13
2018-04-01T01:59:34.956Z,5.88
2018-04-01T02:09:32.714Z,5.93
2018-04-01T02:19:30.169Z,5.90
2018-04-01T02:29:27.968Z,5.92
2018-04-01T02:39:26.569Z,5.86
2018-04-01T02:49:23.516Z,5.78
2018-04-01T02:59:21.196Z,5.86
2018-04-01T03:09:20.326Z,6.55
2018-04-01T03:19:18.419Z,6.83
2018-04-01T03:29:16.026Z,7.47
2018-04-01T03:39:13.398Z,7.79
2018-04-01T03:49:12.427Z,7.67
2018-04-01T03:59:09.839Z,7.59
2018-04-01T04:09:04.951Z,7.90
2018-04-01T04:19:01.062Z,7.75
2018-04-01T04:28:58.411Z,7.47
2018-04-01T04:38:54.410Z,7.23
2018-04-01T04:48:52.507Z,8.22
2018-04-01T04:58:53.022Z,8.48
2018-04-01T05:08:51.151Z,8.22
2018-04-01T05:18:48.405Z,8.27
2018-04-01T05:28:26.849Z,8.75
2018-04-01T05:38:04.455Z,8.79
2018-04-01T05:47:41.418Z,9.14
2018-04-01T05:57:18.917Z,9.16
2018-04-01T06:06:55.984Z,9.22
2018-04-01T06:16:32.382Z,9.34
2018-04-01T06:26:09.383Z,9.45
2018-04-01T06:35:46.389Z,9.56
2018-04-01T06:45:23.567Z,9.88
2018-04-01T06:55:00.712Z,9.80
2018-04-01T07:04:37.278Z,9.72
2018-04-01T07:14:13.598Z,9.53
2018-04-01T07:24:09.491Z,9.80
2018-04-01T07:33:47.919Z,9.96
2018-04-01T07:43:24.462Z,9.70
2018-04-01T07:53:19.994Z,9.64
2018-04-01T08:02:59.845Z,9.71
2018-04-01T08:12:32.376Z,10.22
2018-04-01T08:22:01.255Z,10.53
2018-04-01T08:31:39.205Z,10.84
2018-04-01T08:41:14.937Z,10.43
2018-04-01T08:50:51.505Z,10.78
2018-04-01T09:00:28.726Z,10.91
2018-04-01T09:10:05.844Z,10.80
2018-04-01T09:19:43.029Z,10.59
2018-04-01T09:29:17.582Z,10.46
2018-04-01T09:38:54.536Z,10.66
2018-04-01T09:48:32.149Z,11.02
2018-04-01T09:58:08.730Z,11.16
2018-04-01T10:07:46.287Z,11.47
2018-04-01T10:17:23.330Z,11.38
2018-04-01T10:27:00.032Z,11.79
2018-04-01T10:36:37.144Z,11.60
2018-04-01T10:46:14.909Z,12.45
2018-04-01T10:55:52.061Z,12.13
2018-04-01T11:05:33.474Z,13.41
2018-04-01T11:15:03.007Z,13.37
2018-04-01T11:24:42.696Z,13.19
2018-04-01T11:34:11.307Z,13.36
2018-04-01T11:43:47.950Z,12.63
2018-04-01T11:53:24.444Z,13.06
2018-04-01T12:03:00.884Z,13.80
2018-04-01T12:12:37.418Z,13.78
2018-04-01T12:22:13.978Z,13.00
2018-04-01T12:31:50.480Z,13.36
2018-04-01T12:41:27.068Z,13.19
2018-04-01T12:51:09.371Z,15.53
2018-04-01T13:00:38.625Z,15.27
2018-04-01T13:10:16.831Z,15.76
2018-04-01T13:19:55.091Z,14.68
2018-04-01T13:29:30.280Z,14.29
2018-04-01T13:39:07.717Z,14.24
2018-04-01T13:48:40.940Z,13.59
2018-04-01T13:58:18.652Z,13.19
2018-04-01T14:08:03.858Z,14.72
2018-04-01T14:17:41.609Z,15.06
2018-04-01T14:27:26.576Z,15.49
2018-04-01T14:36:59.272Z,16.30
2018-04-01T14:46:29.010Z,13.47
2018-04-01T14:56:05.411Z,14.91
2018-04-01T15:05:46.652Z,14.36
2018-04-01T15:15:12.505Z,13.53
2018-04-01T15:24:45.647Z,13.33
2018-04-01T15:34:19.868Z,12.34
2018-04-01T15:43:54.687Z,12.19
2018-04-01T15:53:31.556Z,12.44
2018-04-01T16:03:06.230Z,12.39
2018-04-01T16:12:42.168Z,12.08
2018-04-01T16:22:21.875Z,11.90
2018-04-01T16:31:53.535Z,11.72
2018-04-01T16:41:21.018Z,11.50
2018-04-01T16:51:01.174Z,11.21
2018-04-01T17:00:28.658Z,10.95
2018-04-01T17:10:05.021Z,10.84
2018-04-01T17:19:40.758Z,10.73
2018-04-01T17:29:17.179Z,10.36
2018-04-01T17:38:53.566Z,10.36
2018-04-01T17:48:34.011Z,10.25
2018-04-01T17:58:01.615Z,9.92
2018-04-01T18:07:37.661Z,9.72
2018-04-01T18:17:14.142Z,10.28
2018-04-01T18:26:51.464Z,10.04
2018-04-01T18:36:27.538Z,9.55
2018-04-01T18:46:03.067Z,8.91
2018-04-01T18:55:38.569Z,8.61
2018-04-01T19:05:14.861Z,8.97
2018-04-01T19:14:51.658Z,9.12
2018-04-01T19:24:28.675Z,9.20
2018-04-01T19:34:05.108Z,8.72
2018-04-01T19:43:41.216Z,8.15
2018-04-01T19:53:17.139Z,7.75
2018-04-01T20:02:53.669Z,7.73
2018-04-01T20:12:30.195Z,7.93
2018-04-01T20:22:07.275Z,8.70
2018-04-01T20:31:44.186Z,8.50
2018-04-01T20:41:20.415Z,8.85
2018-04-01T20:50:57.321Z,8.54
2018-04-01T21:00:34.060Z,8.61
2018-04-01T21:10:10.199Z,8.62
2018-04-01T21:19:46.861Z,8.91
2018-04-01T21:29:23.556Z,8.57
2018-04-01T21:38:59.555Z,8.11
2018-04-01T21:48:35.708Z,7.99
2018-04-01T21:58:11.953Z,7.21
2018-04-01T22:07:46.720Z,7.19
2018-04-01T22:17:22.958Z,6.90
2018-04-01T22:26:59.328Z,6.88
2018-04-01T22:36:35.861Z,6.63
2018-04-01T22:46:30.721Z,6.54
2018-04-01T22:56:07.857Z,7.38
2018-04-01T23:05:45.987Z,7.79
2018-04-01T23:15:21.806Z,7.85
2018-04-01T23:24:58.612Z,7.75
2018-04-01T23:34:35.092Z,7.86
2018-04-01T23:44:11.830Z,7.79
2018-04-01T23:53:48.424Z,7.73
